createdAt,value
2022-10-28T00:01:15.309Z,10.50
2022-10-28T00:03:45.125Z,10.50
2022-10-28T00:06:18.435Z,10.60
2022-10-28T00:08:46.916Z,10.60
2022-10-28T00:11:24.547Z,10.60
2022-10-28T00:13:55.241Z,10.60
2022-10-28T00:16:25.373Z,10.60
2022-10-28T00:18:54.119Z,10.60
2022-10-28T00:21:27.691Z,10.70
2022-10-28T00:23:55.525Z,10.80
2022-10-28T00:26:27.654Z,10.80
2022-10-28T00:28:58.942Z,10.80
2022-10-28T00:31:28.373Z,10.70
2022-10-28T00:33:55.230Z,10.70
2022-10-28T00:36:27.171Z,10.70
2022-10-28T00:38:55.571Z,10.80
2022-10-28T00:41:25.340Z,10.70
2022-10-28T00:43:55.078Z,10.80
2022-10-28T00:46:42.470Z,10.80
2022-10-28T00:49:30.413Z,10.70
2022-10-28T00:52:02.611Z,10.80
2022-10-28T00:54:30.848Z,10.70
2022-10-28T00:57:00.675Z,10.70
2022-10-28T00:59:33.920Z,10.70
2022-10-28T01:02:01.343Z,10.70
2022-10-28T01:04:28.520Z,10.70
2022-10-28T01:06:57.376Z,10.70
2022-10-28T01:11:52.008Z,10.50
2022-10-28T01:14:18.742Z,10.50
2022-10-28T01:17:18.513Z,10.40
2022-10-28T01:20:00.245Z,10.40
2022-10-28T01:25:19.134Z,10.30
2022-10-28T01:28:18.792Z,10.30
2022-10-28T01:31:13.279Z,10.40
2022-10-28T01:34:07.888Z,10.60
2022-10-28T01:36:54.830Z,10.80
2022-10-28T01:39:33.608Z,10.70
2022-10-28T01:42:15.738Z,10.80
2022-10-28T01:44:55.622Z,10.80
2022-10-28T01:47:30.268Z,10.80
2022-10-28T01:50:07.840Z,10.80
2022-10-28T01:52:35.195Z,10.80
2022-10-28T01:55:11.963Z,10.90
2022-10-28T01:57:40.761Z,10.90
2022-10-28T02:00:08.598Z,10.90
2022-10-28T02:02:38.238Z,10.90
2022-10-28T02:05:39.482Z,10.80
2022-10-28T02:08:29.147Z,10.70
2022-10-28T02:11:02.158Z,10.70
2022-10-28T02:13:49.114Z,10.60
2022-10-28T02:16:42.170Z,10.60
2022-10-28T02:19:17.828Z,10.60
2022-10-28T02:22:04.184Z,10.60
2022-10-28T02:24:53.923Z,10.60
2022-10-28T02:27:29.594Z,10.50
2022-10-28T02:30:05.221Z,10.50
2022-10-28T02:32:38.474Z,10.50
2022-10-28T02:35:11.967Z,10.50
2022-10-28T02:37:42.194Z,10.50
2022-10-28T02:40:16.238Z,10.50
2022-10-28T02:43:03.847Z,10.60
2022-10-28T02:45:47.017Z,10.60
2022-10-28T02:48:22.114Z,10.60
2022-10-28T02:51:00.593Z,10.70
2022-10-28T02:53:33.152Z,10.70
2022-10-28T02:56:02.560Z,10.70
2022-10-28T02:58:29.754Z,10.70
2022-10-28T03:00:56.500Z,10.80
2022-10-28T03:03:23.605Z,10.70
2022-10-28T03:05:50.327Z,10.60
2022-10-28T03:08:20.150Z,10.60
2022-10-28T03:10:46.844Z,10.60
2022-10-28T03:13:13.536Z,10.60
2022-10-28T03:15:40.222Z,10.50
2022-10-28T03:18:06.907Z,10.40
2022-10-28T03:20:33.647Z,10.30
2022-10-28T03:23:00.473Z,10.30
2022-10-28T03:25:27.172Z,10.30
2022-10-28T03:27:53.885Z,10.20
2022-10-28T03:30:20.697Z,10.20
2022-10-28T03:32:47.381Z,10.20
2022-10-28T03:35:14.152Z,10.10
2022-10-28T03:37:44.582Z,10.10
2022-10-28T03:40:12.155Z,10.10
2022-10-28T03:42:41.548Z,10.10
2022-10-28T03:45:09.719Z,10.20
2022-10-28T03:47:37.475Z,10.20
2022-10-28T03:50:04.769Z,10.30
2022-10-28T03:52:31.794Z,10.30
2022-10-28T03:55:00.809Z,10.30
2022-10-28T03:57:31.796Z,10.40
2022-10-28T03:59:58.660Z,10.40
2022-10-28T04:02:26.642Z,10.50
2022-10-28T04:04:53.879Z,10.40
2022-10-28T04:07:21.210Z,10.40
2022-10-28T04:09:51.788Z,10.40
2022-10-28T04:12:19.122Z,10.30
2022-10-28T04:14:46.041Z,10.30
2022-10-28T04:17:13.173Z,10.20
2022-10-28T04:19:40.246Z,10.20
2022-10-28T04:22:08.082Z,10.20
2022-10-28T04:24:34.925Z,10.20
2022-10-28T04:27:01.639Z,10.20
2022-10-28T04:29:28.871Z,10.20
2022-10-28T04:31:55.651Z,10.20
2022-10-28T04:40:03.907Z,10.20
2022-10-28T04:44:55.998Z,10.20
2022-10-28T04:47:22.727Z,10.10
2022-10-28T04:49:49.817Z,10.00
2022-10-28T04:52:16.592Z,10.00
2022-10-28T04:55:02.630Z,9.80
2022-10-28T04:57:29.683Z,9.80
2022-10-28T05:00:04.039Z,9.90
2022-10-28T05:02:33.837Z,9.90
2022-10-28T05:05:03.453Z,9.90
2022-10-28T05:07:51.777Z,9.90
2022-10-28T05:10:19.328Z,9.80
2022-10-28T05:12:46.425Z,9.80
2022-10-28T05:15:20.429Z,9.70
2022-10-28T05:17:51.420Z,9.70
2022-10-28T05:20:19.897Z,9.70
2022-10-28T05:22:50.743Z,9.70
2022-10-28T05:25:18.320Z,9.60
2022-10-28T05:27:45.247Z,9.60
2022-10-28T05:30:12.954Z,9.60
2022-10-28T05:32:40.092Z,9.60
2022-10-28T05:35:18.955Z,9.60
2022-10-28T05:37:45.977Z,9.50
2022-10-28T05:40:14.518Z,9.50
2022-10-28T05:42:44.483Z,9.50
2022-10-28T05:45:14.968Z,9.50
2022-10-28T05:47:46.189Z,9.60
2022-10-28T05:50:15.071Z,9.70
2022-10-28T05:52:52.823Z,9.70
2022-10-28T05:55:21.621Z,9.90
2022-10-28T05:57:53.094Z,9.90
2022-10-28T06:00:23.447Z,10.00
2022-10-28T06:02:50.765Z,10.10
2022-10-28T06:05:18.075Z,10.10
2022-10-28T06:08:01.009Z,10.20
2022-10-28T06:10:28.344Z,10.20
2022-10-28T06:12:55.029Z,10.30
2022-10-28T06:15:22.726Z,10.30
2022-10-28T06:18:01.900Z,10.40
2022-10-28T06:20:28.901Z,10.40
2022-10-28T06:22:58.522Z,10.50
2022-10-28T06:25:25.694Z,10.50
2022-10-28T06:27:58.401Z,10.60
2022-10-28T06:30:26.005Z,10.60
2022-10-28T06:32:55.969Z,10.60
2022-10-28T06:35:23.162Z,10.60
2022-10-28T06:38:19.171Z,10.70
2022-10-28T06:41:25.319Z,10.70
2022-10-28T07:02:40.133Z,11.40
2022-10-28T07:05:08.509Z,11.40
2022-10-28T07:07:37.276Z,11.50
2022-10-28T07:10:07.261Z,11.60
2022-10-28T07:12:34.103Z,11.70
2022-10-28T07:15:00.793Z,11.90
2022-10-28T07:17:27.449Z,12.00
2022-10-28T07:19:54.134Z,12.10
2022-10-28T07:22:25.318Z,12.20
2022-10-28T07:24:52.405Z,12.30
2022-10-28T07:27:19.063Z,12.50
2022-10-28T07:29:45.756Z,12.60
2022-10-28T07:32:12.537Z,12.80
2022-10-28T07:34:39.205Z,12.90
2022-10-28T07:37:06.148Z,13.10
2022-10-28T07:39:33.023Z,13.30
2022-10-28T07:42:01.373Z,13.40
2022-10-28T07:44:28.838Z,13.60
2022-10-28T07:46:58.018Z,13.70
2022-10-28T07:49:25.254Z,13.90
2022-10-28T07:51:52.003Z,13.90
2022-10-28T07:54:18.687Z,14.00
2022-10-28T07:56:45.377Z,14.10
2022-10-28T07:59:12.056Z,14.20
2022-10-28T08:01:38.909Z,14.20
2022-10-28T08:04:05.709Z,14.30
2022-10-28T08:06:34.671Z,14.30
2022-10-28T08:09:01.740Z,14.30
2022-10-28T08:11:28.470Z,14.30
2022-10-28T08:13:55.869Z,14.30
2022-10-28T08:16:22.889Z,14.30
2022-10-28T08:18:49.572Z,14.30
2022-10-28T08:21:16.707Z,14.30
2022-10-28T08:23:46.877Z,14.40
2022-10-28T08:26:15.248Z,14.50
2022-10-28T08:28:42.561Z,14.60
2022-10-28T08:31:10.130Z,14.80
2022-10-28T08:33:39.350Z,15.00
2022-10-28T08:36:28.980Z,15.30
2022-10-28T09:33:45.432Z,19.00
2022-10-28T09:36:17.014Z,19.20
2022-10-28T09:38:44.828Z,19.40
2022-10-28T09:41:22.621Z,19.50
2022-10-28T09:44:11.755Z,19.50
2022-10-28T09:46:39.993Z,19.60
2022-10-28T09:49:15.403Z,19.70
2022-10-28T09:51:52.136Z,19.90
2022-10-28T09:54:27.592Z,20.20
2022-10-28T09:56:54.889Z,20.40
2022-10-28T09:59:21.597Z,20.70
2022-10-28T10:01:48.409Z,21.00
2022-10-28T10:04:21.973Z,21.30
2022-10-28T10:06:56.887Z,21.50
2022-10-28T10:09:27.313Z,21.60
2022-10-28T10:12:02.698Z,21.70
2022-10-28T10:14:35.682Z,21.70
2022-10-28T10:17:35.943Z,21.60
2022-10-28T10:20:12.494Z,21.70
2022-10-28T10:22:41.832Z,21.60
2022-10-28T10:25:20.522Z,21.60
2022-10-28T10:28:02.161Z,21.80
2022-10-28T10:30:30.409Z,22.10
2022-10-28T10:32:58.363Z,22.40
2022-10-28T10:35:33.241Z,22.60
2022-10-28T10:38:02.106Z,22.80
2022-10-28T10:40:33.522Z,22.80
2022-10-28T10:43:15.790Z,22.90
2022-10-28T10:45:49.056Z,23.20
2022-10-28T10:48:16.182Z,23.30
2022-10-28T10:50:44.598Z,23.40
2022-10-28T10:53:21.385Z,23.60
2022-10-28T10:55:55.605Z,23.70
2022-10-28T10:58:26.459Z,23.90
2022-10-28T11:00:55.843Z,23.90
2022-10-28T11:03:47.570Z,23.90
2022-10-28T11:06:24.537Z,23.80
2022-10-28T11:09:16.486Z,23.70
2022-10-28T11:11:43.216Z,23.80
2022-10-28T11:14:09.821Z,23.90
2022-10-28T11:16:52.577Z,23.90
2022-10-28T11:19:23.858Z,24.10
2022-10-28T11:22:18.277Z,24.20
2022-10-28T11:25:10.628Z,24.20
2022-10-28T11:28:03.113Z,24.20
2022-10-28T11:31:03.026Z,24.10
2022-10-28T11:33:47.451Z,24.10
2022-10-28T11:36:25.041Z,24.20
2022-10-28T11:38:52.420Z,24.20
2022-10-28T11:41:48.758Z,24.20
2022-10-28T11:44:42.183Z,24.30
2022-10-28T11:47:57.366Z,24.30
2022-10-28T11:50:24.326Z,24.20
2022-10-28T11:53:15.315Z,24.30
2022-10-28T11:55:53.758Z,24.20
2022-10-28T11:58:43.597Z,24.10
2022-10-28T12:01:25.385Z,24.00
2022-10-28T12:04:29.554Z,23.90
2022-10-28T12:07:14.231Z,23.90
2022-10-28T12:10:09.434Z,23.90
2022-10-28T12:12:52.419Z,23.90
2022-10-28T12:15:34.173Z,23.80
2022-10-28T12:18:29.726Z,23.70
2022-10-28T12:21:07.455Z,23.70
2022-10-28T12:23:37.738Z,23.80
2022-10-28T12:26:10.115Z,23.90
2022-10-28T12:28:36.727Z,24.00
2022-10-28T12:31:07.185Z,24.10
2022-10-28T12:33:39.308Z,24.20
2022-10-28T12:36:09.119Z,24.30
2022-10-28T12:38:57.541Z,24.30
2022-10-28T12:41:27.576Z,24.40
2022-10-28T12:44:16.017Z,24.50
2022-10-28T12:46:52.536Z,24.50
2022-10-28T12:49:38.681Z,24.60
2022-10-28T12:52:47.475Z,24.60
2022-10-28T12:57:45.741Z,24.60
2022-10-28T13:00:15.893Z,24.60
2022-10-28T13:03:07.944Z,24.70
2022-10-28T13:05:57.715Z,24.60
2022-10-28T13:08:59.221Z,24.60
2022-10-28T13:11:58.178Z,24.50
2022-10-28T13:14:50.694Z,24.60
2022-10-28T13:17:55.012Z,24.70
2022-10-28T13:20:58.684Z,24.70
2022-10-28T13:24:01.322Z,24.70
2022-10-28T13:26:30.975Z,24.80
2022-10-28T13:29:00.794Z,24.70
2022-10-28T13:31:46.103Z,24.70
2022-10-28T13:34:18.448Z,24.70
2022-10-28T13:36:58.007Z,24.70
2022-10-28T13:39:29.630Z,24.80
2022-10-28T13:42:23.392Z,24.70
2022-10-28T13:45:06.527Z,24.50
2022-10-28T13:47:37.732Z,24.30
2022-10-28T13:50:10.871Z,24.30
2022-10-28T13:52:43.076Z,24.30
2022-10-28T13:55:48.364Z,24.30
2022-10-28T13:58:26.445Z,24.20
2022-10-28T14:00:54.770Z,24.10
2022-10-28T14:03:23.343Z,23.90
2022-10-28T14:05:57.315Z,23.80
2022-10-28T14:08:34.234Z,23.80
2022-10-28T14:11:07.798Z,23.90
2022-10-28T14:13:49.269Z,23.90
2022-10-28T14:16:24.283Z,24.10
2022-10-28T14:19:05.971Z,24.10
2022-10-28T14:22:03.883Z,24.10
2022-10-28T14:24:42.399Z,23.90
2022-10-28T14:27:09.293Z,23.80
2022-10-28T14:29:54.752Z,23.80
2022-10-28T14:32:33.703Z,23.80
2022-10-28T14:35:25.356Z,23.70
2022-10-28T14:38:12.310Z,23.70
2022-10-28T14:40:46.586Z,23.60
2022-10-28T14:43:23.911Z,23.60
2022-10-28T14:46:18.780Z,23.60
2022-10-28T14:48:57.370Z,23.50
2022-10-28T14:51:26.789Z,23.40
2022-10-28T14:53:59.588Z,23.00
2022-10-28T14:56:29.158Z,22.70
2022-10-28T14:59:04.968Z,22.60
2022-10-28T15:02:17.856Z,22.60
2022-10-28T15:04:47.221Z,22.70
2022-10-28T15:07:17.381Z,22.70
2022-10-28T15:09:47.370Z,22.70
2022-10-28T15:12:17.144Z,22.70
2022-10-28T15:14:52.786Z,22.70
2022-10-28T15:17:21.381Z,22.70
2022-10-28T15:19:50.636Z,22.60
2022-10-28T15:22:33.107Z,22.40
2022-10-28T15:25:05.935Z,22.30
2022-10-28T15:27:35.440Z,22.20
2022-10-28T15:30:04.144Z,22.00
2022-10-28T15:32:33.856Z,21.70
2022-10-28T15:35:29.877Z,21.50
2022-10-28T15:38:01.400Z,21.40
2022-10-28T15:40:31.139Z,21.30
2022-10-28T15:43:03.259Z,21.20
2022-10-28T15:45:37.117Z,20.80
2022-10-28T15:48:13.455Z,20.70
2022-10-28T15:50:40.682Z,20.60
2022-10-28T15:53:07.332Z,20.20
2022-10-28T15:55:41.293Z,19.60
2022-10-28T15:58:31.539Z,19.20
2022-10-28T16:00:58.969Z,19.00
2022-10-28T16:03:40.648Z,18.80
2022-10-28T16:06:22.461Z,18.60
2022-10-28T16:09:15.906Z,18.50
2022-10-28T16:11:56.631Z,18.30
2022-10-28T16:14:39.673Z,18.20
2022-10-28T16:17:36.279Z,18.20
2022-10-28T16:20:18.343Z,18.10
2022-10-28T16:22:47.191Z,17.90
2022-10-28T16:25:22.081Z,17.80
2022-10-28T16:27:51.064Z,17.70
2022-10-28T16:30:18.144Z,17.50
2022-10-28T16:32:49.775Z,17.40
2022-10-28T16:35:22.684Z,17.30
2022-10-28T16:37:56.554Z,17.20
2022-10-28T16:46:28.197Z,16.90
2022-10-28T16:48:55.380Z,16.70
2022-10-28T16:51:22.413Z,16.60
2022-10-28T16:53:50.941Z,16.50
2022-10-28T16:56:38.122Z,16.50
2022-10-28T16:59:05.257Z,16.50
2022-10-28T17:01:32.293Z,16.50
2022-10-28T17:03:59.300Z,16.50
2022-10-28T17:06:26.742Z,16.40
2022-10-28T17:09:08.986Z,16.20
2022-10-28T17:11:35.883Z,16.20
2022-10-28T17:14:02.714Z,16.10
2022-10-28T17:16:29.695Z,16.10
2022-10-28T17:19:16.824Z,16.10
2022-10-28T17:21:44.218Z,16.00
2022-10-28T17:24:12.336Z,16.00
2022-10-28T17:26:59.191Z,16.00
2022-10-28T17:29:27.939Z,15.90
2022-10-28T17:31:55.404Z,15.90
2022-10-28T17:34:22.334Z,15.90
2022-10-28T17:41:02.854Z,15.80
2022-10-28T17:43:30.093Z,15.70
2022-10-28T17:46:05.029Z,15.60
2022-10-28T17:48:32.338Z,15.60
2022-10-28T17:54:59.800Z,15.40
2022-10-28T17:57:26.599Z,15.40
2022-10-28T18:02:34.652Z,15.30
2022-10-28T18:05:58.723Z,15.30
2022-10-28T18:08:47.756Z,15.20
2022-10-28T18:11:20.566Z,15.30
2022-10-28T18:13:49.947Z,15.30
2022-10-28T18:16:22.720Z,15.30
2022-10-28T18:19:47.315Z,15.30
2022-10-28T18:22:43.252Z,15.20
2022-10-28T20:37:54.201Z,14.30
2022-10-28T20:40:27.444Z,14.30
2022-10-28T20:42:55.802Z,14.30
2022-10-28T20:45:23.221Z,14.30
2022-10-28T20:48:08.309Z,14.40
2022-10-28T20:50:35.142Z,14.30
2022-10-28T20:53:02.505Z,14.30
2022-10-28T20:55:29.410Z,14.30
2022-10-28T20:57:56.921Z,14.30
2022-10-28T21:00:23.869Z,14.30
2022-10-28T21:02:58.401Z,14.20
2022-10-28T21:05:26.884Z,14.10
2022-10-28T21:08:03.786Z,14.10
2022-10-28T21:10:30.792Z,14.00
2022-10-28T21:12:57.621Z,14.00
2022-10-28T21:15:25.120Z,13.90
2022-10-28T21:17:52.636Z,13.80
2022-10-28T21:20:21.933Z,13.80
2022-10-28T21:22:49.108Z,13.70
2022-10-28T21:25:16.855Z,13.60
2022-10-28T21:27:45.436Z,13.60
2022-10-28T21:30:12.954Z,13.60
2022-10-28T21:32:40.465Z,13.50
2022-10-28T21:35:07.603Z,13.50
2022-10-28T21:37:35.201Z,13.40
2022-10-28T21:40:02.532Z,13.40
2022-10-28T21:42:29.577Z,13.20
2022-10-28T21:44:56.836Z,13.20
2022-10-28T21:47:24.044Z,13.20
2022-10-28T21:49:51.560Z,13.10
2022-10-28T21:52:18.775Z,13.10
2022-10-28T21:54:52.932Z,13.20
2022-10-28T21:57:21.964Z,13.30
2022-10-28T21:59:49.946Z,13.40
2022-10-28T22:02:17.614Z,13.50
2022-10-28T22:04:46.823Z,13.30
2022-10-28T22:07:13.624Z,13.10
2022-10-28T22:09:40.345Z,13.10
2022-10-28T22:12:07.506Z,13.10
2022-10-28T22:14:34.249Z,13.20
2022-10-28T22:17:01.003Z,13.30
2022-10-28T22:19:27.740Z,13.30
2022-10-28T22:21:54.491Z,13.30
2022-10-28T22:24:21.219Z,13.20
2022-10-28T22:26:47.928Z,13.10
2022-10-28T22:29:14.652Z,13.10
2022-10-28T22:31:41.334Z,13.20
2022-10-28T22:34:08.011Z,13.20
2022-10-28T22:36:34.793Z,13.10
2022-10-28T22:39:01.517Z,13.10
2022-10-28T22:41:30.096Z,13.10
2022-10-28T22:44:01.271Z,13.00
2022-10-28T22:46:30.139Z,12.90
2022-10-28T22:48:57.070Z,12.90
2022-10-28T22:51:24.305Z,12.80
2022-10-28T22:53:51.426Z,12.70
2022-10-28T22:56:22.763Z,12.60
2022-10-28T22:58:56.580Z,12.60
2022-10-28T23:01:24.701Z,12.70
2022-10-28T23:03:53.141Z,12.70
2022-10-28T23:06:22.553Z,12.80
2022-10-28T23:08:50.463Z,12.70
2022-10-28T23:11:19.061Z,12.60
2022-10-28T23:13:46.041Z,12.60
2022-10-28T23:16:15.799Z,12.50
2022-10-28T23:18:43.597Z,12.60
2022-10-28T23:21:15.819Z,12.60
2022-10-28T23:23:43.012Z,12.60
2022-10-28T23:26:10.942Z,12.50
2022-10-28T23:28:37.681Z,12.50
2022-10-28T23:31:05.927Z,12.50
2022-10-28T23:33:34.553Z,12.50
2022-10-28T23:36:03.758Z,12.40
2022-10-28T23:38:31.460Z,12.40
2022-10-28T23:41:00.848Z,12.30
2022-10-28T23:43:28.529Z,12.30
2022-10-28T23:45:55.930Z,12.30
2022-10-28T23:48:23.891Z,12.30
2022-10-28T23:50:51.142Z,12.40
2022-10-28T23:53:18.735Z,12.40
2022-10-28T23:55:47.524Z,12.40
2022-10-28T23:58:15.658Z,12.30
